KTHA/THA METAR and TAF weather

Enter ICAO airport designator
Station Type Date Time Source
KTHA METAR 2020/01/27 10:55 UTC NOAA

KTHA 271055Z AUTO 24006KT 4SM BR OVC004 06/06 A2990 RMK A01


Station Type Date Time Source
KTHA Decoded METAR 2020/01/27 10:55 UTC NOAA

Station name not available
Jan 27, 2020 - 05:55 AM EST / 2020.01.27 1055 UTC
Wind: from the WSW (240 degrees) at 7 MPH (6 KT):0
Visibility: 4 mile(s):0
Sky conditions: overcast
Weather: mist
Temperature: 42 F (6 C)
Dew Point: 42 F (6 C)
Relative Humidity: 100%
Pressure (altimeter): 29.9 in. Hg (1012 hPa)
ob: KTHA 271055Z AUTO 24006KT 4SM BR OVC004 06/06 A2990 RMK A01
cycle: 11

Station Type Date Time Source
KTHA TAF UTC NOAA

Error!

Example: see airport list